createdAt,value
2022-08-09T00:00:00.880Z,102446.19
2022-08-09T00:02:31.527Z,102437.09
2022-08-09T00:05:03.012Z,102431.59
2022-08-09T00:07:45.293Z,102442.59
2022-08-09T00:10:21.239Z,102439.00
2022-08-09T00:12:51.623Z,102441.75
2022-08-09T00:15:20.159Z,102439.00
2022-08-09T00:18:04.743Z,102428.00
2022-08-09T00:20:36.674Z,102428.16
2022-08-09T00:23:08.372Z,102439.16
2022-08-09T00:25:51.835Z,102436.25
2022-08-09T00:28:19.306Z,102431.59
2022-08-09T00:30:49.418Z,102420.13
2022-08-09T00:33:15.986Z,102418.41
2022-08-09T00:35:42.934Z,102422.88
2022-08-09T00:38:12.550Z,102422.88
2022-08-09T00:40:52.740Z,102431.09
2022-08-09T00:44:15.861Z,102424.75
2022-08-09T00:46:09.449Z,102419.28
2022-08-09T00:48:36.718Z,102413.78
2022-08-09T00:51:12.078Z,102422.88
2022-08-09T00:53:39.956Z,102408.28
2022-08-09T00:56:09.640Z,102413.59
2022-08-09T00:58:36.884Z,102414.44
2022-08-09T01:01:10.444Z,102419.78
2022-08-09T01:03:48.579Z,102419.09
2022-08-09T01:06:18.978Z,102423.53
2022-08-09T01:08:55.730Z,102414.44
2022-08-09T01:11:57.852Z,102416.19
2022-08-09T01:14:29.097Z,102408.94
2022-08-09T01:16:58.854Z,102413.44
2022-08-09T01:19:51.783Z,102412.56
2022-08-09T01:22:52.117Z,102414.28
2022-08-09T01:25:41.586Z,102410.69
2022-08-09T01:28:09.554Z,102421.66
2022-08-09T01:30:51.516Z,102417.03
2022-08-09T01:33:21.782Z,102426.28
2022-08-09T01:35:53.579Z,102415.13
2022-08-09T01:38:23.270Z,102425.25
2022-08-09T01:41:05.413Z,102429.72
2022-08-09T01:43:51.137Z,102426.97
2022-08-09T01:46:31.580Z,102421.66
2022-08-09T01:49:12.762Z,102428.00
2022-08-09T01:51:54.357Z,102428.16
2022-08-09T01:54:32.921Z,102425.81
2022-08-09T01:57:03.943Z,102429.44
2022-08-09T01:59:32.710Z,102433.72
2022-08-09T02:02:19.421Z,102435.66
2022-08-09T02:04:49.702Z,102434.16
2022-08-09T02:08:39.247Z,102439.25
2022-08-09T02:10:16.349Z,102443.25
2022-08-09T02:12:45.131Z,102434.50
2022-08-09T02:15:16.711Z,102429.88
2022-08-09T02:18:01.704Z,102429.56
2022-08-09T02:20:34.216Z,102426.63
2022-08-09T02:23:17.880Z,102434.84
2022-08-09T02:25:52.422Z,102432.78
2022-08-09T02:28:24.103Z,102427.28
2022-08-09T02:30:53.938Z,102429.69
2022-08-09T02:33:38.265Z,102421.09
2022-08-09T02:36:18.494Z,102416.28
2022-08-09T02:38:48.856Z,102422.63
2022-08-09T02:41:18.103Z,102423.28
2022-08-09T02:43:54.956Z,102429.47
2022-08-09T02:46:24.392Z,102433.06
2022-08-09T02:48:51.595Z,102433.06
2022-08-09T02:51:20.258Z,102430.13
2022-08-09T02:53:53.122Z,102436.31
2022-08-09T02:56:27.981Z,102441.63
2022-08-09T02:58:55.219Z,102433.22
2022-08-09T03:01:42.688Z,102434.06
2022-08-09T03:04:16.603Z,102433.88
2022-08-09T03:06:45.862Z,102435.97
2022-08-09T03:09:16.238Z,102440.41
2022-08-09T03:12:06.750Z,102441.94
2022-08-09T03:14:32.169Z,102446.56
2022-08-09T03:17:01.648Z,102436.63
2022-08-09T03:19:58.309Z,102436.63
2022-08-09T03:22:25.030Z,102437.31
2022-08-09T03:25:06.492Z,102440.06
2022-08-09T03:27:51.861Z,102439.91
2022-08-09T03:30:29.832Z,102440.44
2022-08-09T03:33:13.360Z,102442.88
2022-08-09T03:36:16.001Z,102445.25
2022-08-09T03:38:31.543Z,102454.19
2022-08-09T03:40:58.326Z,102450.19
2022-08-09T03:43:25.094Z,102449.34
2022-08-09T03:46:03.186Z,102445.41
2022-08-09T03:48:51.338Z,102450.69
2022-08-09T03:51:55.107Z,102447.09
2022-08-09T03:54:06.501Z,102454.16
2022-08-09T03:56:38.073Z,102447.81
2022-08-09T03:59:08.787Z,102454.31
2022-08-09T04:01:44.337Z,102456.19
2022-08-09T04:04:14.664Z,102457.97
2022-08-09T04:06:43.988Z,102461.72
2022-08-09T04:09:44.445Z,102466.19
2022-08-09T04:12:02.536Z,102468.56
2022-08-09T04:14:53.054Z,102465.81
2022-08-09T04:17:16.032Z,102464.63
2022-08-09T04:19:51.254Z,102472.84
2022-08-09T04:22:22.277Z,102469.06
2022-08-09T04:24:48.713Z,102472.84
2022-08-09T04:27:15.147Z,102476.44
2022-08-09T04:29:49.638Z,102476.25
2022-08-09T04:32:16.226Z,102485.53
2022-08-09T04:34:54.470Z,102479.22
2022-08-09T04:37:24.141Z,102492.31
2022-08-09T04:40:11.569Z,102479.78
2022-08-09T04:42:45.960Z,102483.75
2022-08-09T04:45:16.454Z,102492.66
2022-08-09T04:48:00.994Z,102494.88
2022-08-09T04:50:35.082Z,102501.38
2022-08-09T04:53:11.595Z,102498.31
2022-08-09T04:55:57.478Z,102491.78
2022-08-09T04:58:26.750Z,102503.63
2022-08-09T05:00:54.493Z,102497.59
2022-08-09T05:03:41.156Z,102511.13
2022-08-09T05:06:08.569Z,102507.19
2022-08-09T05:08:35.196Z,102510.59
2022-08-09T05:11:02.419Z,102519.53
2022-08-09T05:13:29.159Z,102514.91
2022-08-09T05:15:59.733Z,102518.34
2022-08-09T05:18:38.364Z,102526.72
2022-08-09T05:21:24.201Z,102520.38
2022-08-09T05:23:59.673Z,102517.47
2022-08-09T05:26:37.252Z,102515.59
2022-08-09T05:29:17.368Z,102525.34
2022-08-09T05:31:56.334Z,102519.69
2022-08-09T05:34:29.988Z,102525.19
2022-08-09T05:36:58.622Z,102524.84
2022-08-09T05:39:30.037Z,102525.38
2022-08-09T05:42:04.870Z,102526.59
2022-08-09T05:44:34.844Z,102530.34
2022-08-09T05:47:05.455Z,102526.41
2022-08-09T05:50:30.682Z,102524.72
2022-08-09T05:52:19.367Z,102535.69
2022-08-09T05:54:46.229Z,102531.75
2022-08-09T05:57:17.666Z,102536.03
2022-08-09T05:59:45.840Z,102539.28
2022-08-09T06:02:12.336Z,102536.88
2022-08-09T06:04:44.766Z,102547.69
2022-08-09T06:07:21.329Z,102538.41
2022-08-09T06:10:01.710Z,102539.09
2022-08-09T06:12:28.438Z,102538.06
2022-08-09T06:14:55.255Z,102539.59
2022-08-09T06:17:27.701Z,102543.91
2022-08-09T06:20:06.799Z,102551.09
2022-08-09T06:22:33.371Z,102552.78
2022-08-09T06:25:00.067Z,102549.91
2022-08-09T06:27:26.515Z,102551.59
2022-08-09T06:30:10.333Z,102551.41
2022-08-09T06:32:59.691Z,102555.72
2022-08-09T06:35:56.548Z,102560.34
2022-08-09T06:38:09.969Z,102556.56
2022-08-09T06:40:38.296Z,102564.44
2022-08-09T06:43:10.601Z,102564.44
2022-08-09T06:46:05.283Z,102565.31
2022-08-09T06:48:30.219Z,102567.19
2022-08-09T06:50:58.057Z,102572.84
2022-08-09T06:53:24.852Z,102568.06
2022-08-09T06:55:52.149Z,102565.31
2022-08-09T07:00:46.550Z,102567.00
2022-08-09T07:01:05.571Z,102569.56
2022-08-09T07:03:39.515Z,102568.56
2022-08-09T07:06:18.974Z,102574.91
2022-08-09T07:08:46.836Z,102567.34
2022-08-09T07:11:23.329Z,102569.94
2022-08-09T07:14:04.846Z,102573.16
2022-08-09T07:16:42.656Z,102573.00
2022-08-09T07:19:18.731Z,102578.13
2022-08-09T07:21:57.586Z,102576.91
2022-08-09T07:24:32.143Z,102577.75
2022-08-09T07:27:10.832Z,102583.56
2022-08-09T07:29:58.419Z,102577.06
2022-08-09T07:32:32.863Z,102579.63
2022-08-09T07:35:10.824Z,102585.66
2022-08-09T07:37:45.681Z,102581.88
2022-08-09T07:40:18.642Z,102594.41
2022-08-09T07:42:54.470Z,102584.28
2022-08-09T07:45:38.325Z,102593.19
2022-08-09T07:48:29.653Z,102594.72
2022-08-09T07:51:09.158Z,102594.53
2022-08-09T07:54:05.752Z,102583.41
2022-08-09T07:56:28.166Z,102599.50
2022-08-09T07:58:59.525Z,102589.22
2022-08-09T08:01:32.825Z,102583.53
2022-08-09T08:03:59.939Z,102587.81
2022-08-09T08:06:31.641Z,102579.38
2022-08-09T08:09:04.023Z,102583.16
2022-08-09T08:12:24.073Z,102579.38
2022-08-09T08:14:18.445Z,102586.63
2022-08-09T08:17:00.493Z,102586.22
2022-08-09T08:19:34.174Z,102576.97
2022-08-09T08:22:01.737Z,102579.53
2022-08-09T08:24:35.277Z,102585.69
2022-08-09T08:27:16.517Z,102582.78
2022-08-09T08:29:48.762Z,102580.03
2022-08-09T08:32:24.339Z,102584.31
2022-08-09T08:35:04.133Z,102582.44
2022-08-09T08:37:41.430Z,102585.19
2022-08-09T08:40:17.258Z,102586.03
2022-08-09T08:42:47.373Z,102577.59
2022-08-09T08:45:14.502Z,102580.16
2022-08-09T08:47:42.831Z,102585.31
2022-08-09T08:50:17.705Z,102579.44
2022-08-09T08:52:57.889Z,102588.34
2022-08-09T08:55:27.353Z,102573.59
2022-08-09T08:57:57.578Z,102589.91
2022-08-09T09:00:27.904Z,102586.09
2022-08-09T09:03:08.720Z,102588.00
2022-08-09T09:05:59.855Z,102579.75
2022-08-09T09:08:40.454Z,102583.19
2022-08-09T09:11:08.013Z,102588.84
2022-08-09T09:13:55.275Z,102583.34
2022-08-09T09:16:31.077Z,102581.31
2022-08-09T09:19:22.662Z,102591.44
2022-08-09T09:22:12.578Z,102592.31
2022-08-09T09:24:39.771Z,102591.06
2022-08-09T09:27:22.097Z,102586.41
2022-08-09T09:30:14.203Z,102589.00
2022-08-09T09:32:43.695Z,102584.56
2022-08-09T09:35:12.917Z,102579.06
2022-08-09T09:37:45.520Z,102574.41
2022-08-09T09:40:12.450Z,102587.59
2022-08-09T09:42:42.812Z,102582.97
2022-08-09T09:45:09.913Z,102595.66
2022-08-09T09:47:56.526Z,102580.03
2022-08-09T09:50:42.181Z,102576.22
2022-08-09T09:53:20.247Z,102566.97
2022-08-09T09:56:04.435Z,102576.06
2022-08-09T09:58:45.688Z,102560.63
2022-08-09T10:01:31.332Z,102568.50
2022-08-09T10:04:08.864Z,102568.16
2022-08-09T10:06:46.961Z,102571.59
2022-08-09T10:09:22.349Z,102563.50
2022-08-09T10:12:12.227Z,102554.03
2022-08-09T10:14:43.942Z,102562.09
2022-08-09T10:17:39.339Z,102561.94
2022-08-09T10:20:03.310Z,102555.38
2022-08-09T10:22:39.194Z,102552.63
2022-08-09T10:25:11.241Z,102555.00
2022-08-09T10:27:56.661Z,102547.44
2022-08-09T10:33:29.464Z,102540.03
2022-08-09T10:36:00.757Z,102534.53
2022-08-09T10:38:54.390Z,102535.59
2022-08-09T10:41:15.493Z,102536.06
2022-08-09T10:43:58.747Z,102534.84
2022-08-09T10:47:01.112Z,102534.47
2022-08-09T10:49:51.299Z,102542.53
2022-08-09T10:52:44.775Z,102543.41
2022-08-09T10:55:28.527Z,102535.53
2022-08-09T10:58:02.912Z,102529.81
2022-08-09T11:00:29.552Z,102530.03
2022-08-09T11:03:16.200Z,102526.41
2022-08-09T11:06:03.343Z,102525.38
2022-08-09T11:08:46.965Z,102531.53
2022-08-09T11:11:15.669Z,102529.66
2022-08-09T11:13:50.384Z,102526.72
2022-08-09T11:16:36.204Z,102532.22
2022-08-09T11:19:07.870Z,102523.97
2022-08-09T11:21:56.831Z,102528.63
2022-08-09T11:24:51.180Z,102533.44
2022-08-09T11:28:04.519Z,102520.53
2022-08-09T11:30:32.757Z,102524.31
2022-08-09T11:33:05.700Z,102512.66
2022-08-09T11:35:49.345Z,102514.19
2022-08-09T11:38:32.275Z,102527.28
2022-08-09T11:41:23.151Z,102518.16
2022-08-09T11:43:49.662Z,102536.56
2022-08-09T11:46:32.976Z,102528.31
2022-08-09T11:49:00.263Z,102533.81
2022-08-09T11:52:36.722Z,102534.66
2022-08-09T11:54:28.617Z,102525.72
2022-08-09T11:57:28.493Z,102520.22
2022-08-09T12:00:13.051Z,102524.03
2022-08-09T12:02:43.789Z,102530.38
2022-08-09T12:05:23.003Z,102521.28
2022-08-09T12:07:50.073Z,102517.47
2022-08-09T12:10:39.373Z,102515.59
2022-08-09T12:14:09.601Z,102518.53
2022-08-09T12:15:58.825Z,102511.97
2022-08-09T12:18:29.600Z,102503.94
2022-08-09T12:20:59.322Z,102506.84
2022-08-09T12:23:57.852Z,102512.34
2022-08-09T12:26:19.641Z,102513.03
2022-08-09T12:29:15.410Z,102504.41
2022-08-09T12:32:02.566Z,102505.28
2022-08-09T12:34:36.749Z,102501.47
2022-08-09T12:37:21.318Z,102496.81
2022-08-09T12:40:11.677Z,102505.06
2022-08-09T12:42:43.684Z,102503.56
2022-08-09T12:45:33.764Z,102498.91
2022-08-09T12:47:59.668Z,102503.56
2022-08-09T12:50:27.251Z,102502.88
2022-08-09T12:53:08.442Z,102499.94
2022-08-09T12:56:16.082Z,102496.34
2022-08-09T12:58:24.170Z,102495.47
2022-08-09T13:00:54.955Z,102493.78
2022-08-09T13:03:58.978Z,102487.59
2022-08-09T13:06:26.095Z,102488.47
2022-08-09T13:09:09.859Z,102486.75
2022-08-09T13:11:39.532Z,102480.38
2022-08-09T13:14:41.026Z,102479.53
2022-08-09T13:17:16.183Z,102471.50
2022-08-09T13:20:06.766Z,102465.97
2022-08-09T13:23:05.564Z,102461.69
2022-08-09T13:25:42.356Z,102471.84
2022-08-09T13:28:24.485Z,102467.19
2022-08-09T13:32:17.841Z,102459.16
2022-08-09T13:33:53.619Z,102458.28
2022-08-09T13:36:38.170Z,102464.81
2022-08-09T13:41:51.304Z,102469.47
2022-08-09T13:42:01.562Z,102472.41
2022-08-09T13:44:28.820Z,102469.84
2022-08-09T13:47:26.819Z,102473.63
2022-08-09T13:49:56.471Z,102472.75
2022-08-09T13:52:30.172Z,102466.41
2022-08-09T13:54:58.743Z,102472.75
2022-08-09T13:57:35.360Z,102469.16
2022-08-09T14:00:08.387Z,102472.75
2022-08-09T14:02:42.342Z,102473.63
2022-08-09T14:05:57.429Z,102460.91
2022-08-09T14:08:10.524Z,102460.91
2022-08-09T14:10:49.015Z,102463.47
2022-08-09T14:13:27.669Z,102460.72
2022-08-09T14:16:09.511Z,102464.50
2022-08-09T14:18:37.732Z,102472.59
2022-08-09T14:21:04.218Z,102457.97
2022-08-09T14:23:41.025Z,102456.09
2022-08-09T14:26:20.801Z,102459.72
2022-08-09T14:28:47.787Z,102456.09
2022-08-09T14:31:14.221Z,102458.84
2022-08-09T14:33:40.728Z,102453.16
2022-08-09T14:36:20.402Z,102461.41
2022-08-09T14:38:47.474Z,102461.22
2022-08-09T14:41:23.953Z,102452.13
2022-08-09T14:44:02.879Z,102465.84
2022-08-09T14:46:51.238Z,102455.72
2022-08-09T14:49:16.895Z,102450.41
2022-08-09T14:51:43.349Z,102467.56
2022-08-09T14:54:10.269Z,102466.53
2022-08-09T14:56:57.510Z,102462.94
2022-08-09T14:59:23.533Z,102470.31
2022-08-09T15:01:50.230Z,102469.28
2022-08-09T15:04:16.768Z,102472.22
2022-08-09T15:06:43.359Z,102468.59
2022-08-09T15:09:16.767Z,102463.09
2022-08-09T15:12:03.725Z,102463.09
2022-08-09T15:14:33.991Z,102464.16
2022-08-09T15:17:00.871Z,102467.94
2022-08-09T15:19:36.049Z,102466.22
2022-08-09T15:22:03.236Z,102461.75
2022-08-09T15:24:29.976Z,102462.63
2022-08-09T15:26:57.771Z,102468.31
2022-08-09T15:30:56.502Z,102461.97
2022-08-09T15:32:29.691Z,102462.13
2022-08-09T15:34:59.890Z,102464.19
2022-08-09T15:37:57.092Z,102463.19
2022-08-09T15:40:31.611Z,102463.34
2022-08-09T15:42:59.312Z,102465.06
2022-08-09T15:45:29.744Z,102462.50
2022-08-09T15:48:06.571Z,102459.91
2022-08-09T15:50:44.039Z,102455.44
2022-08-09T15:54:00.154Z,102456.50
2022-08-09T15:56:20.967Z,102455.66
2022-08-09T15:58:44.420Z,102461.16
2022-08-09T16:01:13.361Z,102453.91
2022-08-09T16:03:41.711Z,102457.53
2022-08-09T16:06:29.283Z,102468.72
2022-08-09T16:08:56.096Z,102468.91
2022-08-09T16:11:22.679Z,102457.91
2022-08-09T16:14:02.582Z,102467.19
2022-08-09T16:16:34.670Z,102465.09
2022-08-09T16:19:04.464Z,102460.84
2022-08-09T16:21:31.670Z,102468.06
2022-08-09T16:24:02.453Z,102450.72
2022-08-09T16:26:35.125Z,102454.31
2022-08-09T16:29:11.111Z,102464.44
2022-08-09T16:32:18.137Z,102461.69
2022-08-09T16:34:25.422Z,102461.69
2022-08-09T16:36:52.690Z,102466.16
2022-08-09T16:39:21.349Z,102454.09
2022-08-09T16:42:04.276Z,102453.47
2022-08-09T16:44:32.150Z,102452.41
2022-08-09T16:47:01.863Z,102449.84
2022-08-09T16:50:32.660Z,102451.56
2022-08-09T16:52:17.341Z,102446.06
2022-08-09T16:54:45.759Z,102441.41
2022-08-09T16:57:12.376Z,102451.38
2022-08-09T16:59:43.856Z,102453.47
2022-08-09T17:02:17.771Z,102453.47
2022-08-09T17:04:50.225Z,102458.94
2022-08-09T17:08:42.702Z,102459.81
2022-08-09T17:10:07.342Z,102447.97
2022-08-09T17:12:35.570Z,102459.81
2022-08-09T17:15:02.380Z,102460.84
2022-08-09T17:17:50.669Z,102467.19
2022-08-09T17:20:32.592Z,102465.47
2022-08-09T17:23:03.598Z,102481.97
2022-08-09T17:25:31.846Z,102476.47
2022-08-09T17:28:04.280Z,102472.88
2022-08-09T17:30:31.814Z,102480.25
2022-08-09T17:33:05.663Z,102486.59
2022-08-09T17:35:48.575Z,102481.97
2022-08-09T17:38:24.441Z,102488.34
2022-08-09T17:40:57.368Z,102487.47
2022-08-09T17:43:34.180Z,102483.00
2022-08-09T17:46:07.025Z,102485.75
2022-08-09T17:48:39.893Z,102489.34
2022-08-09T17:51:09.716Z,102491.25
2022-08-09T17:53:48.210Z,102496.94
2022-08-09T17:56:29.257Z,102501.41
2022-08-09T17:59:09.467Z,102506.91
2022-08-09T18:01:40.979Z,102501.59
2022-08-09T18:04:25.348Z,102504.34
2022-08-09T18:07:23.759Z,102509.84
2022-08-09T18:09:41.493Z,102509.84
2022-08-09T18:12:19.739Z,102509.84
2022-08-09T18:14:54.211Z,102521.00
2022-08-09T18:17:27.549Z,102517.22
2022-08-09T18:20:56.514Z,102525.47
2022-08-09T18:22:55.130Z,102521.00
2022-08-09T18:25:21.589Z,102524.59
2022-08-09T18:28:21.623Z,102525.63
2022-08-09T18:30:54.596Z,102516.53
2022-08-09T18:33:23.381Z,102529.44
2022-08-09T18:35:59.497Z,102532.19
2022-08-09T18:38:27.403Z,102534.25
2022-08-09T18:40:55.351Z,102538.88
2022-08-09T18:43:22.692Z,102536.13
2022-08-09T18:46:47.038Z,102533.38
2022-08-09T18:48:36.422Z,102535.28
2022-08-09T18:51:02.874Z,102536.31
2022-08-09T18:53:34.560Z,102542.69
2022-08-09T18:56:17.006Z,102539.06
2022-08-09T18:58:46.487Z,102549.22
2022-08-09T19:01:17.978Z,102541.81
2022-08-09T19:04:01.369Z,102549.22
2022-08-09T19:06:32.662Z,102552.81
2022-08-09T19:09:02.937Z,102560.38
2022-08-09T19:11:35.429Z,102557.63
2022-08-09T19:14:06.434Z,102564.00
2022-08-09T19:16:35.982Z,102560.38
2022-08-09T19:19:23.764Z,102566.75
2022-08-09T19:21:52.067Z,102563.13
2022-08-09T19:24:37.397Z,102564.16
2022-08-09T19:27:05.996Z,102567.97
2022-08-09T19:30:20.862Z,102566.41
2022-08-09T19:32:21.068Z,102573.16
2022-08-09T19:34:54.041Z,102575.03
2022-08-09T19:37:20.773Z,102577.78
2022-08-09T19:40:03.999Z,102583.28
2022-08-09T19:42:32.326Z,102584.50
2022-08-09T19:44:59.061Z,102588.28
2022-08-09T19:47:27.096Z,102582.94
2022-08-09T19:50:09.443Z,102583.13
2022-08-09T19:52:49.323Z,102584.53
2022-08-09T19:55:19.406Z,102585.38
2022-08-09T19:57:48.763Z,102580.06
2022-08-09T20:00:15.965Z,102592.09
2022-08-09T20:04:16.899Z,102590.38
2022-08-09T20:05:30.776Z,102583.16
2022-08-09T20:08:12.756Z,102594.34
2022-08-09T20:10:43.111Z,102581.63
2022-08-09T20:13:10.998Z,102591.09
2022-08-09T20:16:33.754Z,102594.88
2022-08-09T20:18:27.790Z,102594.00
2022-08-09T20:20:55.618Z,102591.25
2022-08-09T20:23:23.701Z,102594.69
2022-08-09T20:25:52.215Z,102588.00
2022-08-09T20:28:27.382Z,102581.81
2022-08-09T20:31:01.066Z,102580.97
2022-08-09T20:33:38.895Z,102590.06
2022-08-09T20:36:08.691Z,102589.88
2022-08-09T20:38:52.746Z,102581.63
2022-08-09T20:41:32.296Z,102589.88
2022-08-09T20:44:03.868Z,102586.47
2022-08-09T20:46:43.374Z,102598.28
2022-08-09T20:49:11.906Z,102590.91
2022-08-09T20:51:41.038Z,102600.00
2022-08-09T20:54:12.727Z,102597.09
2022-08-09T20:56:43.693Z,102601.75
2022-08-09T20:59:17.151Z,102595.75
2022-08-09T21:01:51.303Z,102605.00
2022-08-09T21:05:54.482Z,102604.31
2022-08-09T21:07:11.917Z,102602.97
2022-08-09T21:09:41.773Z,102603.31
2022-08-09T21:14:41.761Z,102601.25
2022-08-09T21:18:21.120Z,102606.25
2022-08-09T21:20:17.937Z,102607.81
2022-08-09T21:22:42.990Z,102607.28
2022-08-09T21:25:37.915Z,102605.19
2022-08-09T21:28:05.325Z,102611.38
2022-08-09T21:30:34.446Z,102611.94
2022-08-09T21:33:06.720Z,102617.25
2022-08-09T21:35:39.340Z,102618.09
2022-08-09T21:38:21.053Z,102613.28
2022-08-09T21:40:58.351Z,102620.50
2022-08-09T21:43:56.415Z,102617.56
2022-08-09T21:46:12.182Z,102621.00
2022-08-09T21:48:42.578Z,102614.28
2022-08-09T21:51:18.101Z,102621.31
2022-08-09T21:53:54.905Z,102621.13
2022-08-09T21:56:33.788Z,102617.34
2022-08-09T21:59:09.182Z,102614.44
2022-08-09T22:01:58.980Z,102616.13
2022-08-09T22:04:23.118Z,102615.94
2022-08-09T22:07:09.597Z,102616.66
2022-08-09T22:09:38.648Z,102609.25
2022-08-09T22:12:18.728Z,102616.66
2022-08-09T22:14:51.403Z,102613.03
2022-08-09T22:17:17.867Z,102615.59
2022-08-09T22:19:59.261Z,102618.69
2022-08-09T22:22:27.648Z,102612.53
2022-08-09T22:26:07.089Z,102606.34
2022-08-09T22:27:40.874Z,102611.38
2022-08-09T22:30:08.993Z,102615.66
2022-08-09T22:32:35.436Z,102610.16
2022-08-09T22:35:06.239Z,102611.03
2022-08-09T22:37:40.025Z,102619.78
2022-08-09T22:40:08.698Z,102627.66
2022-08-09T22:42:35.478Z,102621.13
2022-08-09T22:48:04.719Z,102618.38
2022-08-09T22:48:15.098Z,102621.81
2022-08-09T22:50:34.907Z,102621.81
2022-08-09T22:53:03.966Z,102625.22
2022-08-09T22:56:07.198Z,102621.63
2022-08-09T22:58:20.212Z,102614.44
2022-08-09T23:00:58.639Z,102619.06
2022-08-09T23:04:02.505Z,102612.72
2022-08-09T23:06:14.157Z,102617.84
2022-08-09T23:08:44.342Z,102614.25
2022-08-09T23:11:17.101Z,102611.50
2022-08-09T23:13:43.817Z,102616.84
2022-08-09T23:16:10.564Z,102613.03
2022-08-09T23:18:37.025Z,102614.09
2022-08-09T23:21:03.524Z,102602.91
2022-08-09T23:23:30.267Z,102609.44
2022-08-09T23:25:56.806Z,102617.50
2022-08-09T23:28:23.307Z,102609.94
2022-08-09T23:30:51.303Z,102604.81
2022-08-09T23:33:19.438Z,102618.19
2022-08-09T23:36:04.414Z,102620.94
2022-08-09T23:38:32.323Z,102623.84
2022-08-09T23:40:58.826Z,102607.19
2022-08-09T23:43:25.341Z,102612.84
2022-08-09T23:45:51.802Z,102616.28
2022-08-09T23:48:19.553Z,102618.19
2022-08-09T23:50:46.033Z,102618.19
2022-08-09T23:53:12.522Z,102618.00
2022-08-09T23:55:38.965Z,102612.69
2022-08-09T23:58:10.815Z,102620.06
